createdAt,value
2022-08-06T00:00:07.518Z,1.15
2022-08-06T00:02:59.855Z,1.30
2022-08-06T00:06:02.682Z,1.45
2022-08-06T00:09:05.370Z,1.30
2022-08-06T00:12:10.829Z,1.30
2022-08-06T00:15:14.785Z,2.00
2022-08-06T00:18:18.443Z,1.20
2022-08-06T00:21:42.307Z,1.17
2022-08-06T00:24:43.259Z,1.00
2022-08-06T00:27:51.379Z,1.00
2022-08-06T00:30:54.366Z,1.00
2022-08-06T00:34:05.077Z,1.23
2022-08-06T00:37:18.828Z,1.05
2022-08-06T00:40:24.376Z,1.00
2022-08-06T00:43:30.720Z,1.10
2022-08-06T00:46:45.038Z,0.98
2022-08-06T00:49:48.906Z,0.80
2022-08-06T00:52:52.257Z,0.70
2022-08-06T00:55:59.428Z,0.70
2022-08-06T00:59:05.039Z,0.82
2022-08-06T01:02:14.758Z,1.10
2022-08-06T01:05:54.759Z,0.90
2022-08-06T01:08:41.589Z,1.25
2022-08-06T01:15:02.562Z,0.88
2022-08-06T01:18:24.606Z,0.82
2022-08-06T01:22:39.411Z,1.05
2022-08-06T01:25:46.174Z,1.20
2022-08-06T01:29:03.039Z,1.45
2022-08-06T01:32:10.261Z,1.05
2022-08-06T01:35:46.796Z,1.10
2022-08-06T01:38:57.411Z,1.00
2022-08-06T01:42:06.130Z,1.30
2022-08-06T01:45:13.547Z,1.13
2022-08-06T01:48:21.227Z,1.25
2022-08-06T01:52:13.450Z,1.40
2022-08-06T01:54:59.580Z,1.38
2022-08-06T01:58:19.203Z,1.27
2022-08-06T02:01:25.280Z,1.30
2022-08-06T02:04:32.128Z,1.55
2022-08-06T02:08:37.567Z,1.10
2022-08-06T02:14:32.422Z,1.20
2022-08-06T02:18:04.544Z,1.50
2022-08-06T02:21:13.842Z,1.35
2022-08-06T02:24:26.277Z,1.27
2022-08-06T02:27:43.063Z,1.42
2022-08-06T02:30:50.243Z,1.30
2022-08-06T02:34:02.293Z,1.48
2022-08-06T02:37:23.029Z,1.20
2022-08-06T02:40:51.761Z,1.20
2022-08-06T02:44:03.068Z,1.40
2022-08-06T02:47:18.548Z,0.85
2022-08-06T02:50:29.184Z,1.02
2022-08-06T02:54:02.619Z,1.08
2022-08-06T02:57:05.118Z,1.20
2022-08-06T03:00:10.030Z,0.80
2022-08-06T03:03:21.562Z,0.90
2022-08-06T03:06:38.767Z,0.80
2022-08-06T03:09:49.478Z,1.00
2022-08-06T03:12:55.654Z,1.27
2022-08-06T03:16:01.460Z,1.17
2022-08-06T03:19:56.039Z,0.98
2022-08-06T03:22:35.827Z,1.00
2022-08-06T03:25:47.783Z,0.93
2022-08-06T03:28:51.061Z,1.15
2022-08-06T03:31:58.692Z,1.15
2022-08-06T03:35:41.978Z,1.10
2022-08-06T03:38:44.263Z,1.15
2022-08-06T03:42:07.191Z,1.35
2022-08-06T03:45:35.819Z,1.50
2022-08-06T03:48:41.414Z,1.05
2022-08-06T03:51:52.441Z,1.13
2022-08-06T03:55:04.854Z,1.15
2022-08-06T03:58:13.251Z,1.00
2022-08-06T04:01:35.296Z,1.30
2022-08-06T04:04:47.311Z,1.23
2022-08-06T04:07:56.776Z,1.30
2022-08-06T04:10:59.888Z,1.08
2022-08-06T04:14:07.354Z,1.40
2022-08-06T04:17:10.997Z,1.00
2022-08-06T04:20:17.408Z,1.13
2022-08-06T04:23:40.138Z,0.80
2022-08-06T04:26:45.868Z,1.00
2022-08-06T04:29:57.240Z,1.20
2022-08-06T04:33:04.311Z,1.15
2022-08-06T04:36:17.695Z,1.20
2022-08-06T04:39:38.435Z,1.20
2022-08-06T04:42:51.377Z,1.10
2022-08-06T04:46:14.259Z,1.30
2022-08-06T04:49:18.202Z,1.25
2022-08-06T04:52:46.748Z,1.10
2022-08-06T04:56:03.032Z,1.27
2022-08-06T04:59:07.553Z,1.48
2022-08-06T05:02:10.196Z,1.30
2022-08-06T05:08:19.120Z,1.20
2022-08-06T05:11:29.513Z,0.85
2022-08-06T05:14:42.904Z,0.90
2022-08-06T05:17:56.039Z,1.13
2022-08-06T05:20:58.866Z,1.30
2022-08-06T05:24:03.977Z,0.88
2022-08-06T05:27:07.220Z,1.05
2022-08-06T05:30:09.923Z,0.93
2022-08-06T05:33:12.089Z,1.00
2022-08-06T05:36:20.119Z,0.90
2022-08-06T05:39:56.496Z,0.80
2022-08-06T05:42:57.631Z,0.88
2022-08-06T05:46:05.697Z,1.25
2022-08-06T05:49:57.190Z,0.90
2022-08-06T05:53:12.751Z,0.90
2022-08-06T05:56:39.409Z,0.95
2022-08-06T05:59:56.823Z,0.85
2022-08-06T06:03:05.205Z,1.02
2022-08-06T06:06:17.885Z,1.10
2022-08-06T06:09:21.339Z,1.10
2022-08-06T06:12:44.200Z,0.93
2022-08-06T06:16:04.190Z,0.70
2022-08-06T06:19:29.575Z,0.90
2022-08-06T06:22:58.551Z,0.80
2022-08-06T06:26:10.667Z,0.93
2022-08-06T06:30:05.213Z,0.88
2022-08-06T06:33:47.306Z,0.70
2022-08-06T06:37:25.763Z,0.95
2022-08-06T06:40:52.954Z,1.10
2022-08-06T06:44:17.355Z,0.60
2022-08-06T06:47:46.403Z,1.23
2022-08-06T06:50:58.741Z,0.90
2022-08-06T06:54:07.215Z,0.70
2022-08-06T06:57:17.815Z,0.63
2022-08-06T07:00:45.524Z,0.93
2022-08-06T07:03:44.759Z,0.52
2022-08-06T07:10:01.889Z,0.50
2022-08-06T07:16:35.740Z,0.60
2022-08-06T07:19:39.752Z,0.68
2022-08-06T07:24:04.470Z,0.77
2022-08-06T07:26:14.942Z,0.70
2022-08-06T07:29:48.584Z,0.70
2022-08-06T07:32:44.747Z,0.75
2022-08-06T07:35:51.271Z,0.98
2022-08-06T07:38:57.282Z,0.60
2022-08-06T07:42:11.487Z,0.65
2022-08-06T07:45:17.100Z,0.80
2022-08-06T07:48:24.208Z,0.60
2022-08-06T07:51:34.443Z,0.70
2022-08-06T07:54:38.650Z,0.60
2022-08-06T07:57:55.308Z,0.50
2022-08-06T08:00:58.949Z,0.60
2022-08-06T08:04:34.166Z,0.63
2022-08-06T08:07:53.830Z,0.60
2022-08-06T08:10:59.686Z,0.57
2022-08-06T08:14:06.037Z,0.60
2022-08-06T08:17:09.502Z,0.52
2022-08-06T08:20:16.402Z,0.73
2022-08-06T08:23:25.761Z,0.60
2022-08-06T08:27:02.138Z,0.75
2022-08-06T08:29:59.730Z,0.75
2022-08-06T08:33:02.133Z,0.60
2022-08-06T08:36:08.486Z,0.73
2022-08-06T08:39:15.808Z,0.57
2022-08-06T08:42:31.423Z,0.75
2022-08-06T08:45:36.088Z,0.60
2022-08-06T08:48:39.425Z,0.60
2022-08-06T08:51:45.143Z,0.50
2022-08-06T08:54:54.404Z,0.50
2022-08-06T08:58:39.738Z,0.70
2022-08-06T09:01:52.661Z,0.50
2022-08-06T09:04:45.551Z,0.50
2022-08-06T09:08:00.666Z,1.05
2022-08-06T09:11:06.930Z,0.93
2022-08-06T09:14:16.427Z,0.50
2022-08-06T09:18:11.582Z,0.57
2022-08-06T09:20:45.656Z,0.70
2022-08-06T09:23:58.081Z,0.93
2022-08-06T09:27:44.947Z,0.50
2022-08-06T09:30:30.894Z,0.80
2022-08-06T09:34:19.167Z,0.43
2022-08-06T09:36:59.341Z,0.47
2022-08-06T09:40:13.653Z,0.50
2022-08-06T09:44:01.998Z,0.43
2022-08-06T09:46:53.406Z,0.40
2022-08-06T09:50:00.314Z,0.50
2022-08-06T09:53:03.277Z,0.40
2022-08-06T09:56:17.115Z,0.57
2022-08-06T09:59:19.889Z,0.50
2022-08-06T10:02:23.510Z,0.38
2022-08-06T10:05:33.531Z,0.60
2022-08-06T10:09:11.902Z,0.40
2022-08-06T10:12:26.712Z,0.52
2022-08-06T10:15:57.672Z,0.50
2022-08-06T10:18:55.709Z,0.70
2022-08-06T10:22:09.304Z,0.73
2022-08-06T10:25:13.464Z,0.60
2022-08-06T10:28:16.137Z,0.40
2022-08-06T10:31:21.934Z,0.57
2022-08-06T10:34:31.007Z,0.32
2022-08-06T10:37:49.729Z,0.47
2022-08-06T10:40:57.141Z,0.43
2022-08-06T10:44:00.946Z,0.50
2022-08-06T10:47:09.329Z,0.57
2022-08-06T10:54:02.328Z,0.50
2022-08-06T10:57:05.222Z,0.60
2022-08-06T11:00:10.403Z,0.50
2022-08-06T11:03:51.510Z,0.60
2022-08-06T11:08:08.904Z,0.80
2022-08-06T11:11:31.981Z,0.55
2022-08-06T11:14:44.951Z,0.52
2022-08-06T11:17:50.721Z,0.60
2022-08-06T11:20:53.811Z,0.70
2022-08-06T11:24:01.955Z,0.90
2022-08-06T11:27:11.654Z,1.02
2022-08-06T11:30:14.252Z,1.45
2022-08-06T11:33:20.478Z,0.98
2022-08-06T11:36:27.457Z,0.45
2022-08-06T11:39:34.651Z,0.57
2022-08-06T11:42:50.412Z,1.00
2022-08-06T11:46:31.781Z,0.55
2022-08-06T11:49:43.389Z,0.50
2022-08-06T11:52:47.493Z,0.75
2022-08-06T11:56:05.103Z,0.80
2022-08-06T11:59:14.775Z,0.60
2022-08-06T12:02:54.704Z,0.50
2022-08-06T12:06:00.437Z,0.55
2022-08-06T12:09:35.788Z,0.52
2022-08-06T12:12:50.153Z,0.50
2022-08-06T12:16:10.280Z,0.70
2022-08-06T12:19:15.966Z,0.60
2022-08-06T12:22:20.787Z,0.55
2022-08-06T12:25:36.590Z,0.70
2022-08-06T12:28:39.135Z,0.50
2022-08-06T12:31:48.644Z,0.93
2022-08-06T12:34:59.503Z,0.93
2022-08-06T12:38:02.178Z,1.17
2022-08-06T12:41:09.729Z,0.90
2022-08-06T12:44:14.879Z,1.00
2022-08-06T12:47:17.451Z,0.90
2022-08-06T12:50:42.647Z,0.82
2022-08-06T12:53:56.767Z,1.05
2022-08-06T12:57:06.117Z,1.08
2022-08-06T13:00:14.707Z,1.20
2022-08-06T13:03:19.376Z,1.40
2022-08-06T13:06:31.885Z,1.05
2022-08-06T13:09:51.037Z,1.20
2022-08-06T13:14:14.638Z,1.08
2022-08-06T13:16:38.338Z,0.90
2022-08-06T13:19:52.744Z,0.75
2022-08-06T13:22:55.640Z,0.60
2022-08-06T13:26:10.629Z,0.90
2022-08-06T13:30:34.195Z,0.63
2022-08-06T13:32:44.642Z,0.70
2022-08-06T13:35:53.991Z,0.60
2022-08-06T13:39:05.227Z,0.70
2022-08-06T13:42:15.378Z,0.70
2022-08-06T13:45:56.411Z,0.90
2022-08-06T13:48:52.397Z,0.75
2022-08-06T13:51:55.569Z,0.68
2022-08-06T13:54:59.115Z,0.70
2022-08-06T13:58:01.981Z,0.70
2022-08-06T14:01:04.815Z,0.60
2022-08-06T14:04:09.929Z,0.70
2022-08-06T14:07:14.518Z,0.90
2022-08-06T14:10:18.872Z,1.10
2022-08-06T14:13:33.331Z,0.93
2022-08-06T14:16:35.644Z,0.70
2022-08-06T14:20:14.104Z,1.05
2022-08-06T14:23:04.169Z,0.95
2022-08-06T14:26:12.892Z,0.93
2022-08-06T14:30:25.760Z,1.00
2022-08-06T14:32:37.621Z,1.15
2022-08-06T14:35:50.383Z,1.00
2022-08-06T14:38:54.820Z,1.10
2022-08-06T14:42:15.599Z,1.00
2022-08-06T14:45:21.791Z,1.23
2022-08-06T14:48:31.319Z,1.02
2022-08-06T14:51:37.638Z,1.00
2022-08-06T14:55:07.496Z,1.13
2022-08-06T14:58:11.221Z,0.73
2022-08-06T15:01:15.257Z,0.73
2022-08-06T15:04:24.065Z,1.00
2022-08-06T15:07:42.033Z,0.90
2022-08-06T15:10:44.804Z,0.82
2022-08-06T15:13:52.002Z,0.52
2022-08-06T15:17:01.966Z,0.98
2022-08-06T15:20:18.370Z,0.60
2022-08-06T15:23:30.677Z,0.40
2022-08-06T15:26:49.417Z,0.55
2022-08-06T15:29:52.224Z,0.50
2022-08-06T15:32:57.050Z,0.38
2022-08-06T15:36:00.246Z,0.63
2022-08-06T15:39:09.438Z,0.50
2022-08-06T15:42:12.367Z,0.52
2022-08-06T15:45:51.497Z,0.50
2022-08-06T15:48:47.476Z,0.52
2022-08-06T15:52:01.581Z,0.50
2022-08-06T15:55:16.056Z,0.60
2022-08-06T15:58:28.852Z,0.50
2022-08-06T16:01:52.616Z,0.63
2022-08-06T16:04:55.759Z,0.50
2022-08-06T16:07:57.900Z,0.70
2022-08-06T16:11:00.588Z,0.68
2022-08-06T16:14:03.513Z,0.82
2022-08-06T16:17:10.052Z,0.73
2022-08-06T16:20:20.827Z,0.60
2022-08-06T16:23:55.629Z,0.70
2022-08-06T16:26:53.053Z,0.45
2022-08-06T16:29:59.973Z,0.55
2022-08-06T16:33:03.001Z,0.68
2022-08-06T16:36:05.962Z,1.00
2022-08-06T16:39:12.462Z,0.70
2022-08-06T16:42:15.274Z,0.52
2022-08-06T16:45:19.227Z,0.57
2022-08-06T16:48:27.145Z,0.70
2022-08-06T16:52:44.225Z,0.90
2022-08-06T16:54:53.504Z,0.55
2022-08-06T16:57:57.521Z,0.70
2022-08-06T17:02:13.957Z,0.73
2022-08-06T17:04:32.532Z,0.75
2022-08-06T17:07:40.253Z,0.60
2022-08-06T17:10:45.944Z,0.50
2022-08-06T17:14:02.557Z,0.80
2022-08-06T17:17:07.218Z,0.60
2022-08-06T17:20:14.570Z,0.60
2022-08-06T17:23:19.630Z,0.55
2022-08-06T17:26:34.796Z,0.63
2022-08-06T17:33:01.099Z,0.80
2022-08-06T17:36:29.632Z,0.85
2022-08-06T17:39:39.582Z,0.80
2022-08-06T17:42:42.300Z,0.70
2022-08-06T17:45:52.646Z,0.90
2022-08-06T17:49:07.595Z,0.80
2022-08-06T17:52:10.387Z,0.80
2022-08-06T17:55:13.634Z,0.70
2022-08-06T17:58:38.027Z,0.60
2022-08-06T18:01:44.113Z,0.90
2022-08-06T18:04:47.408Z,0.80
2022-08-06T18:08:11.303Z,0.90
2022-08-06T18:11:13.901Z,0.80
2022-08-06T18:14:31.942Z,1.30
2022-08-06T18:17:47.615Z,0.90
2022-08-06T18:20:57.429Z,0.70
2022-08-06T18:24:25.221Z,0.70
2022-08-06T18:27:54.883Z,0.88
2022-08-06T18:30:52.009Z,0.70
2022-08-06T18:33:54.403Z,0.77
2022-08-06T18:36:57.476Z,0.80
2022-08-06T18:40:40.547Z,1.10
2022-08-06T18:43:55.361Z,1.50
2022-08-06T18:47:03.559Z,1.23
2022-08-06T18:50:09.192Z,0.80
2022-08-06T18:53:11.602Z,0.90
2022-08-06T18:56:16.698Z,1.00
2022-08-06T18:59:23.158Z,1.00
2022-08-06T19:02:33.937Z,0.80
2022-08-06T19:05:40.346Z,1.00
2022-08-06T19:08:47.275Z,1.00
2022-08-06T19:11:51.609Z,1.17
2022-08-06T19:14:54.529Z,1.20
2022-08-06T19:18:13.421Z,0.90
2022-08-06T19:21:19.373Z,0.98
2022-08-06T19:24:35.864Z,0.73
2022-08-06T19:28:07.470Z,1.17
2022-08-06T19:31:06.234Z,0.90
2022-08-06T19:34:14.378Z,0.90
2022-08-06T19:37:33.134Z,1.13
2022-08-06T19:40:52.911Z,1.23
2022-08-06T19:44:25.267Z,1.20
2022-08-06T19:47:21.667Z,1.20
2022-08-06T19:50:28.232Z,1.20
2022-08-06T19:53:31.383Z,1.40
2022-08-06T19:56:34.947Z,1.75
2022-08-06T20:00:52.184Z,1.52
2022-08-06T20:03:00.803Z,1.73
2022-08-06T20:06:21.208Z,1.83
2022-08-06T20:10:00.234Z,1.88
2022-08-06T20:12:51.851Z,1.80
2022-08-06T20:15:55.310Z,2.60
2022-08-06T20:18:58.816Z,2.40
2022-08-06T20:22:01.658Z,2.80
2022-08-06T20:25:17.935Z,2.92
2022-08-06T20:29:08.113Z,2.95
2022-08-06T20:31:55.389Z,3.67
2022-08-06T20:34:58.243Z,3.88
2022-08-06T20:38:02.937Z,3.72
2022-08-06T20:41:58.921Z,3.85
2022-08-06T20:44:30.191Z,4.30
2022-08-06T20:47:56.984Z,3.92
2022-08-06T20:50:55.456Z,3.38
2022-08-06T20:54:01.939Z,3.78
2022-08-06T20:57:21.187Z,3.83
2022-08-06T21:00:28.205Z,3.58
2022-08-06T21:05:15.726Z,3.95
2022-08-06T21:06:54.111Z,3.00
2022-08-06T21:09:56.817Z,3.40
2022-08-06T21:13:01.999Z,3.00
2022-08-06T21:16:13.907Z,3.05
2022-08-06T21:19:17.237Z,3.30
2022-08-06T21:22:21.417Z,3.47
2022-08-06T21:25:42.415Z,3.15
2022-08-06T21:28:52.435Z,3.42
2022-08-06T21:31:58.914Z,3.17
2022-08-06T21:35:01.847Z,3.38
2022-08-06T21:38:07.087Z,3.60
2022-08-06T21:41:54.388Z,2.83
2022-08-06T21:44:51.802Z,3.10
2022-08-06T21:47:53.975Z,4.00
2022-08-06T21:50:59.651Z,3.25
2022-08-06T21:54:03.740Z,4.00
2022-08-06T21:57:12.378Z,3.90
2022-08-06T22:00:41.594Z,3.53
2022-08-06T22:04:35.703Z,3.10
2022-08-06T22:07:05.955Z,2.85
2022-08-06T22:10:08.862Z,2.85
2022-08-06T22:13:16.263Z,3.35
2022-08-06T22:16:32.996Z,3.25
2022-08-06T22:19:39.349Z,3.80
2022-08-06T22:22:45.404Z,3.90
2022-08-06T22:25:54.940Z,3.60
2022-08-06T22:28:58.622Z,2.90
2022-08-06T22:32:04.656Z,3.67
2022-08-06T22:35:09.627Z,4.35
2022-08-06T22:38:16.270Z,3.88
2022-08-06T22:41:42.404Z,3.38
2022-08-06T22:45:48.253Z,3.22
2022-08-06T22:48:08.002Z,3.45
2022-08-06T22:51:11.848Z,3.30
2022-08-06T22:54:28.653Z,3.38
2022-08-06T22:58:04.255Z,3.58
2022-08-06T23:01:23.376Z,3.72
2022-08-06T23:04:29.237Z,3.45
2022-08-06T23:07:53.456Z,3.10
2022-08-06T23:10:53.723Z,3.15
2022-08-06T23:13:56.046Z,2.92
2022-08-06T23:16:59.519Z,3.13
2022-08-06T23:20:02.417Z,3.30
2022-08-06T23:23:04.666Z,3.13
2022-08-06T23:26:07.071Z,3.75
2022-08-06T23:29:10.319Z,3.50
2022-08-06T23:32:13.678Z,4.00
2022-08-06T23:35:35.302Z,2.88
2022-08-06T23:38:39.838Z,3.08
2022-08-06T23:45:04.992Z,2.53
2022-08-06T23:48:07.196Z,2.67
2022-08-06T23:51:15.145Z,2.55
2022-08-06T23:54:37.133Z,2.80
2022-08-06T23:57:57.069Z,2.65
